Latest Weather Observations for Alice Springs Airport

IDD60801

Issued at 7:31 am CST Friday 6 March 2015 (issued every 30 minutes, with the page automatically refreshed every 10 minutes)

About weather observations | Map of weather stations | Latest weather observations for NT | Other Formats
Station Details ID: 015590 Name: ALICE SPRINGS AIRPORT Lat: -23.80 Lon: 133.89 Height: 546.0 m
Data from the previous 72 hours. | See also: Recent months at Alice Springs Airport
Date/Time
CST
Temp
°C
App
Temp
°C
Dew
Point
Rel
Hum
%
Delta-T
°C
Wind Press
QNH
hPa
Press
MSL
hPa
Rain
since 9 am
mm
Dir
 
Spd
km/h
Gust
km/h
Spd
kts
Gust
kts
06/07:00am 21.7 17.3 4.9 33 8.5 SE 17 24 9 13 1017.9 1014.6 0.0
06/06:30am 21.1 16.7 4.5 33 8.3 SE 17 28 9 15 1017.7 1014.5 0.0
06/06:00am 21.3 17.6 4.2 32 8.5 SE 13 19 7 10 1017.5 1014.3 0.0
06/05:30am 22.2 17.0 3.7 29 9.2 SE 20 30 11 16 1017.0 1013.7 0.0
06/05:00am 20.0 16.7 4.8 36 7.6 SE 11 13 6 7 1017.1 1013.8 0.0
06/04:30am 19.7 16.5 5.2 38 7.3 SE 11 13 6 7 1017.1 1013.8 0.0
06/04:00am 20.3 17.1 5.0 36 7.7 SSE 11 13 6 7 1017.1 1013.8 0.0
06/03:30am 20.3 17.1 5.2 37 7.6 SE 11 11 6 6 1017.0 1013.7 0.0
06/03:00am 21.0 18.2 5.2 35 8.0 SSE 9 11 5 6 1017.2 1013.9 0.0
06/02:30am 23.0 19.1 3.5 28 9.7 SE 13 17 7 9 1017.3 1014.0 0.0
06/02:00am 23.7 19.4 3.1 26 10.2 SE 15 20 8 11 1017.5 1014.3 0.0
06/01:30am 23.4 19.2 3.9 28 9.8 SE 15 19 8 10 1017.6 1014.4 0.0
06/01:00am 22.8 19.6 5.2 32 9.0 SE 11 13 6 7 1017.7 1014.5 0.0
06/12:30am 23.6 20.7 4.8 29 9.6 SE 9 11 5 6 1018.0 1014.7 0.0
06/12:00am 25.1 21.4 4.4 26 10.6 SE 13 17 7 9 1018.1 1014.8 0.0
 
Date/Time
CST
Temp
°C
App
Temp
°C
Dew
Point
Rel
Hum
%
Delta-T
°C
Wind Press
QNH
hPa
Press
MSL
hPa
Rain
since 9 am
mm
Dir
 
Spd
km/h
Gust
km/h
Spd
kts
Gust
kts
05/11:30pm 26.2 21.6 3.9 23 11.4 SE 17 24 9 13 1018.1 1014.8 0.0
05/11:00pm 26.5 22.1 4.8 25 11.3 SE 17 22 9 12 1018.1 1014.8 0.0
05/10:30pm 27.5 22.4 4.1 22 12.1 SE 20 28 11 15 1017.9 1014.6 0.0
05/10:00pm 27.8 23.4 4.7 23 12.1 SE 17 24 9 13 1017.9 1014.6 0.0
05/09:30pm 28.2 23.8 4.8 22 12.3 SE 17 20 9 11 1017.6 1014.4 0.0
05/09:00pm 28.4 24.1 5.2 23 12.3 SE 17 26 9 14 1017.4 1014.2 0.0
05/08:30pm 29.1 24.7 4.6 21 12.9 SE 17 24 9 13 1016.9 1013.6 0.0
05/08:00pm 29.5 25.1 4.8 21 13.1 SE 17 24 9 13 1016.5 1013.2 0.0
05/07:30pm 30.1 25.2 4.3 19 13.6 SE 19 30 10 16 1016.0 1012.7 0.0
05/07:00pm 30.9 26.0 3.9 18 14.2 SE 19 28 10 15 1015.4 1012.1 0.0
05/06:30pm 31.8 25.6 4.1 17 14.7 SE 26 35 14 19 1015.0 1011.7 0.0
05/06:00pm 32.5 26.2 3.9 16 15.2 SE 26 33 14 18 1014.6 1011.3 0.0
05/05:30pm 33.4 27.5 3.7 15 15.8 SE 24 35 13 19 1014.4 1011.1 0.0
05/05:00pm 33.8 28.2 5.3 17 15.6 SE 24 35 13 19 1014.3 1011.0 0.0
05/04:30pm 33.5 27.9 5.3 17 15.4 ESE 24 37 13 20 1014.4 1011.1 0.0
05/04:00pm 34.1 28.4 4.9 16 15.9 SE 24 37 13 20 1014.6 1011.3 0.0
05/03:30pm 33.9 28.0 3.7 15 16.1 SE 24 39 13 21 1014.8 1011.5 0.0
05/03:00pm 33.9 27.7 4.4 16 15.9 ESE 26 37 14 20 1015.2 1011.9 0.0
05/02:30pm 34.1 27.9 4.5 15 16.0 SE 26 37 14 20 1015.6 1012.3 0.0
05/02:00pm 32.9 27.5 6.3 19 14.7 ESE 24 39 13 21 1016.2 1012.9 0.0
05/01:30pm 32.1 26.2 6.0 19 14.3 SE 26 37 14 20 1016.9 1013.6 0.0
05/01:00pm 32.6 26.8 6.3 19 14.5 SE 26 39 14 21 1017.3 1014.0 0.0
05/12:37pm 31.8 25.7 6.6 20 13.9 SE 28 46 15 25 1017.6 1014.4 0.0
05/12:30pm 31.7 24.9 6.8 21 13.8 ESE 32 46 17 25 1017.7 1014.5 0.0
05/12:06pm 31.0 25.1 7.5 23 13.1 SE 28 46 15 25 1018.0 1014.7 0.0
05/12:00pm 31.4 25.0 7.1 22 13.5 SE 30 46 16 25 1018.1 1014.8 0.0
05/11:34am 30.9 24.6 7.6 23 13.0 SE 30 48 16 26 1018.4 1015.1 0.0
05/11:30am 30.9 24.7 7.9 23 12.9 SE 30 41 16 22 1018.5 1015.2 0.0
05/11:00am 30.0 23.5 8.0 25 12.3 SE 32 48 17 26 1018.9 1015.6 0.0
05/10:55am 30.1 24.0 8.2 25 12.3 SE 30 48 16 26 1019.0 1015.7 0.0
05/10:30am 29.8 23.6 8.0 25 12.2 SE 30 43 16 23 1019.3 1016.1 0.0
05/10:00am 29.1 23.7 9.5 29 11.2 SE 28 39 15 21 1019.6 1016.4 0.0
05/09:30am 28.6 23.1 10.4 32 10.5 ESE 30 39 16 21 1019.6 1016.4 0.0
05/09:00am 28.0 22.9 10.5 33 10.1 SE 28 39 15 21 1019.6 1016.4 0.0
05/08:30am 27.3 22.3 10.9 36 9.5 ESE 28 37 15 20 1019.5 1016.3 0.0
05/08:00am 26.7 21.2 10.7 36 9.2 ESE 30 39 16 21 1019.2 1016.0 0.0
05/07:30am 26.4 22.4 10.3 36 9.2 SE 22 35 12 19 1018.8 1015.5 0.0
05/07:00am 25.9 23.0 9.8 36 9.1 SE 15 24 8 13 1018.4 1015.1 0.0
05/06:30am 26.0 23.0 9.2 34 9.4 SE 15 24 8 13 1017.7 1014.5 0.0
05/06:00am 26.7 21.8 8.5 31 10.1 SE 24 33 13 18 1017.3 1014.0 0.0
05/05:30am 26.1 23.1 7.8 31 10.0 SE 13 17 7 9 1016.9 1013.6 0.0
05/05:00am 26.4 23.3 7.2 29 10.4 SE 13 17 7 9 1016.5 1013.2 0.0
05/04:30am 27.5 23.1 6.6 26 11.3 SE 19 32 10 17 1016.2 1012.9 0.0
05/04:00am 28.2 23.4 5.5 23 12.1 SE 20 30 11 16 1015.8 1012.6 0.0
05/03:30am 28.8 23.4 4.7 21 12.7 ESE 22 32 12 17 1015.4 1012.1 0.0
05/03:00am 29.1 22.7 5.0 21 12.8 ESE 28 39 15 21 1015.4 1012.1 0.0
05/02:30am 30.0 23.4 4.1 19 13.6 ESE 28 37 15 20 1015.5 1012.2 0.0
05/02:00am 30.5 24.0 4.5 19 13.8 SE 28 46 15 25 1015.4 1012.1 0.0
05/01:57am 30.4 23.9 4.6 19 13.7 SE 28 46 15 25 1015.3 1012.0 0.0
05/01:30am 31.1 24.5 4.3 18 14.2 SE 28 43 15 23 1015.4 1012.1 0.0
05/01:00am 31.4 25.7 5.0 19 14.2 SE 24 33 13 18 1015.3 1012.0 0.0
05/12:30am 32.2 25.7 4.6 17 14.8 SE 28 35 15 19 1015.3 1012.0 0.0
05/12:00am 32.7 26.6 5.0 17 15.0 SE 26 37 14 20 1015.3 1012.0 0.0
 
Date/Time
CST
Temp
°C
App
Temp
°C
Dew
Point
Rel
Hum
%
Delta-T
°C
Wind Press
QNH
hPa
Press
MSL
hPa
Rain
since 9 am
mm
Dir
 
Spd
km/h
Gust
km/h
Spd
kts
Gust
kts
04/11:30pm 33.1 27.1 5.1 17 15.2 SE 26 37 14 20 1015.1 1011.8 0.0
04/11:00pm 33.3 28.8 6.2 18 15.0 SE 19 28 10 15 1014.9 1011.6 0.0
04/10:30pm 33.2 30.1 7.2 20 14.6 SE 13 22 7 12 1014.7 1011.4 0.0
04/10:00pm 32.4 29.5 8.1 22 13.8 SSE 13 15 7 8 1014.4 1011.1 0.0
04/09:30pm 33.5 30.3 6.9 19 14.9 SSE 13 19 7 10 1014.2 1010.9 0.0
04/09:00pm 33.3 30.4 8.0 21 14.4 SSE 13 15 7 8 1014.0 1010.6 0.0
04/08:30pm 34.4 31.3 7.1 18 15.4 SSE 13 17 7 9 1013.5 1010.2 0.0
04/08:00pm 34.8 31.2 6.7 17 15.8 SSE 15 17 8 9 1013.1 1009.8 0.0
04/07:30pm 35.6 31.9 6.1 16 16.5 SSE 15 19 8 10 1012.7 1009.4 0.0
04/07:00pm 36.3 32.5 5.9 15 17.0 SSE 15 24 8 13 1012.3 1008.9 0.0
04/06:30pm 37.1 33.0 6.3 15 17.4 SE 17 24 9 13 1011.9 1008.6 0.0
04/06:00pm 37.6 33.5 6.1 14 17.8 SE 17 28 9 15 1011.6 1008.3 0.0
04/05:30pm 38.3 33.6 5.9 13 18.3 SE 20 30 11 16 1011.5 1008.2 0.0
04/05:00pm 38.7 34.0 6.1 13 18.5 SE 20 32 11 17 1011.5 1008.2 0.0
04/04:30pm 37.9 33.1 5.4 13 18.2 ESE 20 33 11 18 1011.4 1008.1 0.0
04/04:00pm 38.5 33.6 5.3 13 18.6 ESE 20 32 11 17 1011.5 1008.2 0.0
04/03:30pm 38.8 34.2 5.7 13 18.7 E 19 35 10 19 1011.6 1008.3 0.0
04/03:00pm 38.1 33.6 6.1 14 18.1 E 19 30 10 16 1011.9 1008.6 0.0
04/02:47pm 38.4 33.7 6.1 14 18.3 E 20 48 11 26 1011.9 1008.6 0.0
04/02:30pm 38.6 33.7 5.2 13 18.7 ESE 20 35 11 19 1012.1 1008.7 0.0
04/02:00pm 38.3 33.2 6.2 14 18.2 ENE 22 35 12 19 1012.5 1009.1 0.0
04/01:39pm 39.2 34.6 5.5 12 19.0 E 19 48 10 26 1012.6 1009.3 0.0
04/01:30pm 38.8 33.9 5.3 13 18.8 ESE 20 32 11 17 1012.8 1009.5 0.0
04/01:00pm 37.1 33.0 6.0 14 17.5 ESE 17 32 9 17 1013.2 1009.9 0.0
04/12:30pm 38.2 34.0 5.6 13 18.3 SE 17 30 9 16 1013.6 1010.3 0.0
04/12:00pm 36.7 32.5 5.7 15 17.3 SE 17 30 9 16 1014.2 1010.9 0.0
04/11:30am 34.8 31.0 6.0 16 16.0 SE 15 26 8 14 1014.5 1011.2 0.0
04/11:00am 35.3 31.3 4.7 15 16.7 ESE 15 24 8 13 1015.0 1011.7 0.0
04/10:30am 33.8 29.3 4.2 15 15.9 ESE 17 28 9 15 1015.3 1012.0 0.0
04/10:00am 32.8 27.4 2.7 15 15.7 ESE 20 32 11 17 1015.6 1012.3 0.0
04/09:30am 32.1 26.4 3.0 16 15.2 SE 22 30 12 16 1015.6 1012.3 0.0
04/09:00am 31.4 25.4 3.2 16 14.7 ESE 24 33 13 18 1015.6 1012.3 0.0
04/08:30am 30.7 25.5 3.5 17 14.2 ESE 20 28 11 15 1015.4 1012.1 0.0
04/08:00am 29.5 26.3 5.1 21 13.0 ESE 11 19 6 10 1015.0 1011.7 0.0
04/07:30am 27.6 25.0 5.9 25 11.6 SE 9 11 5 6 1014.7 1011.4 0.0
04/07:00am 25.8 22.4 5.7 27 10.6 SE 13 15 7 8 1014.4 1011.1 0.0
04/06:30am 24.9 22.0 6.5 30 9.8 SE 11 13 6 7 1014.3 1011.0 0.0
04/06:00am 24.7 21.7 6.1 30 9.8 ESE 11 13 6 7 1013.7 1010.4 0.0
04/05:30am 24.6 24.3 8.6 36 8.8 CALM 0 0 0 0 1013.5 1010.2 0.0
04/05:00am 25.6 23.5 6.8 30 10.1 ESE 7 7 4 4 1013.0 1009.7 0.0
04/04:30am 26.5 24.8 8.5 32 10.0 SSE 7 9 4 5 1012.7 1009.4 0.0
04/04:00am 27.9 24.8 5.6 24 11.9 SSE 11 13 6 7 1012.3 1008.9 0.0
04/03:30am 29.3 26.5 5.1 21 12.9 ESE 9 15 5 8 1012.2 1008.8 0.0
04/03:00am 27.3 24.8 8.2 30 10.6 ESE 11 13 6 7 1012.3 1008.9 0.0
04/02:30am 25.8 26.0 10.7 38 8.7 CALM 0 0 0 0 1012.4 1009.0 0.0
04/02:00am 25.3 25.4 10.2 38 8.6 CALM 0 0 0 0 1012.5 1009.1 0.0
04/01:30am 25.6 24.9 11.3 40 8.3 NNE 6 7 3 4 1012.7 1009.4 0.0
04/01:00am 26.9 25.0 9.1 32 10.0 ESE 9 9 5 5 1012.8 1009.5 0.0
04/12:30am 27.5 25.2 10.3 34 9.9 SE 13 15 7 8 1012.8 1009.5 0.0
04/12:00am 27.6 26.4 9.7 32 10.2 SSE 6 11 3 6 1012.8 1009.5 0.0
 
Date/Time
CST
Temp
°C
App
Temp
°C
Dew
Point
Rel
Hum
%
Delta-T
°C
Wind Press
QNH
hPa
Press
MSL
hPa
Rain
since 9 am
mm
Dir
 
Spd
km/h
Gust
km/h
Spd
kts
Gust
kts
03/11:30pm 27.2 27.7 11.5 37 9.2 CALM 0 0 0 0 1012.7 1009.4 0.0
03/11:00pm 28.3 28.3 9.8 31 10.6 CALM 0 0 0 0 1012.8 1009.5 0.0
03/10:30pm 29.0 28.8 8.9 28 11.4 CALM 0 0 0 0 1012.7 1009.4 0.0
03/10:00pm 29.6 28.2 9.6 28 11.5 SE 7 9 4 5 1012.7 1009.4 0.0
03/09:30pm 31.0 29.2 9.3 26 12.5 SE 9 11 5 6 1012.3 1008.9 0.0
03/09:00pm 32.0 29.5 8.0 22 13.6 ESE 11 11 6 6 1011.8 1008.5 0.0
03/08:30pm 32.8 30.6 8.0 21 14.1 ESE 9 11 5 6 1011.4 1008.1 0.0
03/08:00pm 33.8 31.5 7.5 19 14.9 E 9 11 5 6 1011.2 1007.9 0.0
03/07:30pm 34.4 31.5 8.1 19 15.1 E 13 15 7 8 1010.9 1007.6 0.0
03/07:00pm 36.0 32.6 7.6 17 16.3 E 15 22 8 12 1010.6 1007.2 0.0
03/06:30pm 37.4 33.3 6.3 15 17.6 E 17 26 9 14 1010.3 1006.9 0.0
03/06:00pm 38.2 33.1 6.1 14 18.2 E 22 30 12 16 1010.1 1006.7 0.0
03/05:30pm 38.9 34.4 5.9 13 18.7 ESE 19 30 10 16 1009.8 1006.5 0.0
03/05:00pm 38.7 33.9 5.8 13 18.6 ENE 20 28 11 15 1009.7 1006.4 0.0
03/04:30pm 39.3 33.8 6.1 13 18.9 ENE 24 35 13 19 1009.8 1006.5 0.0
03/04:00pm 38.6 34.0 6.6 14 18.3 ENE 20 35 11 19 1009.9 1006.6 0.0
03/03:30pm 38.6 34.1 6.3 14 18.4 E 19 30 10 16 1010.2 1006.8 0.0
03/03:00pm 39.8 33.6 6.2 13 19.2 NE 28 39 15 21 1010.4 1007.0 0.0
03/02:30pm 39.0 33.0 5.1 12 19.0 ENE 26 41 14 22 1010.7 1007.3 0.0
03/02:00pm 39.2 33.2 5.5 12 19.0 E 26 37 14 20 1010.9 1007.6 0.0
03/01:37pm 39.0 32.8 6.1 13 18.7 E 28 48 15 26 1011.2 1007.9 0.0
03/01:30pm 38.4 31.9 6.5 14 18.2 E 30 43 16 23 1011.3 1008.0 0.0
03/01:00pm 37.6 30.5 5.7 14 17.9 E 32 39 17 21 1011.7 1008.4 0.0
03/12:30pm 38.1 31.5 6.1 14 18.1 E 30 41 16 22 1012.1 1008.7 0.0
03/12:00pm 37.3 31.2 6.4 15 17.5 ENE 28 39 15 21 1012.5 1009.1 0.0
03/11:30am 36.2 29.7 6.7 16 16.7 E 30 43 16 23 1012.8 1009.5 0.0
03/11:00am 36.0 30.0 6.9 16 16.5 E 28 35 15 19 1013.1 1009.8 0.0
03/10:30am 35.8 29.4 7.1 17 16.3 E 30 39 16 21 1013.2 1009.9 0.0
03/10:00am 34.4 28.3 6.5 17 15.6 E 28 37 15 20 1013.1 1009.8 0.0
03/09:30am 33.5 26.8 5.7 17 15.3 E 30 39 16 21 1013.3 1010.0 0.0
03/09:00am 32.6 26.7 7.6 21 14.1 E 28 35 15 19 1013.2 1009.9 0.0
03/08:30am 31.4 27.1 7.8 23 13.3 E 20 30 11 16 1012.9 1009.6 0.0
03/08:00am 30.3 27.4 8.3 25 12.4 ESE 13 19 7 10 1012.8 1009.5 0.0

Other Formats:

Comma delimited format used in spreadsheet applications
http://www.bom.gov.au/fwo/IDD60801/IDD60801.94326.axf

JavaScript Object Notation format (JSON) in row-major order
http://www.bom.gov.au/fwo/IDD60801/IDD60801.94326.json